Bowler, Wisconsin
Current Conditions -  °F | °C
As of 6:15 PM on Wednesday 28 Jan 2015 (Local Time) from KCLI Reporting Station
Clear Clear  
Wind Chill: -5°   Ceiling: Unl
Heat Index: -1°   Visibility: 10mi
Dew Point: -5°   Wind: 7mph
Humidity: 75%   Direction: 120°ESE
Pressure: 29.92"   Gusts: NA
Location:  44.86°N, 88.98°W
Report Text: KCLI 290015Z AUTO 12006KT 10SM CLR M01/M05 A2992 RMK AO2
Loading
Personal Weather Stations






























Interactive Weather Map New forecast layout! Learn more

10-Day Weather Forecast

Advertisements
Track Severe Weather on mobile